sensor_id;sensor_type;location;lat;lon;timestamp;pressure;altitude;pressure_sealevel;temperature;humidity
5053;BME280;2545;50.892;5.740;2022-07-29T00:00:26;100665.00;;;20.14;55.04
5053;BME280;2545;50.892;5.740;2022-07-29T00:02:51;100672.13;;;20.20;55.14
5053;BME280;2545;50.892;5.740;2022-07-29T00:05:17;100669.75;;;20.40;57.04
5053;BME280;2545;50.892;5.740;2022-07-29T00:07:42;100667.44;;;20.30;59.25
5053;BME280;2545;50.892;5.740;2022-07-29T00:10:08;100663.84;;;20.16;60.87
5053;BME280;2545;50.892;5.740;2022-07-29T00:12:34;100665.16;;;19.91;61.84
5053;BME280;2545;50.892;5.740;2022-07-29T00:15:00;100663.13;;;19.87;61.95
5053;BME280;2545;50.892;5.740;2022-07-29T00:17:26;100663.31;;;19.71;64.56
5053;BME280;2545;50.892;5.740;2022-07-29T00:19:51;100652.78;;;19.64;66.52
5053;BME280;2545;50.892;5.740;2022-07-29T00:22:17;100652.25;;;19.54;67.01
5053;BME280;2545;50.892;5.740;2022-07-29T00:24:43;100636.72;;;19.38;68.03
5053;BME280;2545;50.892;5.740;2022-07-29T00:27:08;100637.25;;;19.33;66.06
5053;BME280;2545;50.892;5.740;2022-07-29T00:29:33;100629.59;;;19.32;65.81
5053;BME280;2545;50.892;5.740;2022-07-29T00:31:58;100633.63;;;19.34;65.63
5053;BME280;2545;50.892;5.740;2022-07-29T00:34:24;100654.34;;;19.44;66.30
5053;BME280;2545;50.892;5.740;2022-07-29T00:37:08;100649.09;;;19.44;66.10
5053;BME280;2545;50.892;5.740;2022-07-29T00:39:33;100637.16;;;19.41;64.91
5053;BME280;2545;50.892;5.740;2022-07-29T00:41:58;100634.88;;;19.38;66.20
5053;BME280;2545;50.892;5.740;2022-07-29T00:44:24;100625.53;;;19.29;67.04
5053;BME280;2545;50.892;5.740;2022-07-29T00:46:49;100623.69;;;19.30;66.58
5053;BME280;2545;50.892;5.740;2022-07-29T00:49:14;100612.97;;;19.25;66.58
5053;BME280;2545;50.892;5.740;2022-07-29T00:51:40;100610.72;;;19.22;67.07
5053;BME280;2545;50.892;5.740;2022-07-29T00:54:07;100602.59;;;19.17;67.41
5053;BME280;2545;50.892;5.740;2022-07-29T00:56:33;100616.66;;;19.16;67.61
5053;BME280;2545;50.892;5.740;2022-07-29T00:58:59;100610.97;;;19.12;67.04
5053;BME280;2545;50.892;5.740;2022-07-29T01:01:25;100619.53;;;19.21;66.89
5053;BME280;2545;50.892;5.740;2022-07-29T01:03:51;100623.19;;;19.20;67.02
5053;BME280;2545;50.892;5.740;2022-07-29T01:06:17;100619.19;;;19.24;66.80
5053;BME280;2545;50.892;5.740;2022-07-29T01:08:44;100621.38;;;19.20;67.27
5053;BME280;2545;50.892;5.740;2022-07-29T01:11:11;100608.91;;;19.22;67.53
5053;BME280;2545;50.892;5.740;2022-07-29T01:13:37;100615.13;;;19.21;67.62
5053;BME280;2545;50.892;5.740;2022-07-29T01:16:07;100613.22;;;19.15;68.09
5053;BME280;2545;50.892;5.740;2022-07-29T01:18:39;100597.28;;;18.95;69.42
5053;BME280;2545;50.892;5.740;2022-07-29T01:29:24;100598.16;;;18.73;71.22
5053;BME280;2545;50.892;5.740;2022-07-29T01:34:45;100599.97;;;18.73;71.20
5053;BME280;2545;50.892;5.740;2022-07-29T01:37:26;100600.69;;;18.81;70.37
5053;BME280;2545;50.892;5.740;2022-07-29T01:39:55;100599.25;;;18.79;69.67
5053;BME280;2545;50.892;5.740;2022-07-29T01:42:32;100597.50;;;18.71;69.75
5053;BME280;2545;50.892;5.740;2022-07-29T01:45:14;100588.84;;;18.56;70.54
5053;BME280;2545;50.892;5.740;2022-07-29T01:47:47;100585.81;;;18.67;70.39
5053;BME280;2545;50.892;5.740;2022-07-29T01:50:17;100594.72;;;18.58;71.47
5053;BME280;2545;50.892;5.740;2022-07-29T01:52:53;100602.72;;;18.57;72.32
5053;BME280;2545;50.892;5.740;2022-07-29T01:55:20;100602.72;;;18.57;73.40
5053;BME280;2545;50.892;5.740;2022-07-29T01:57:48;100598.03;;;18.52;73.64
5053;BME280;2545;50.892;5.740;2022-07-29T02:00:14;100607.94;;;18.57;74.60
5053;BME280;2545;50.892;5.740;2022-07-29T02:02:42;100611.22;;;18.59;74.46
5053;BME280;2545;50.892;5.740;2022-07-29T02:05:12;100610.13;;;18.53;74.30
5053;BME280;2545;50.892;5.740;2022-07-29T02:07:40;100632.41;;;18.64;74.21
5053;BME280;2545;50.892;5.740;2022-07-29T02:10:08;100623.19;;;18.53;75.15
5053;BME280;2545;50.892;5.740;2022-07-29T02:12:34;100627.13;;;18.49;75.51
5053;BME280;2545;50.892;5.740;2022-07-29T02:15:03;100627.13;;;18.49;75.97
5053;BME280;2545;50.892;5.740;2022-07-29T02:17:33;100606.78;;;18.36;77.36
5053;BME280;2545;50.892;5.740;2022-07-29T02:20:03;100616.25;;;18.37;79.35
5053;BME280;2545;50.892;5.740;2022-07-29T02:22:30;100604.06;;;18.30;79.42
5053;BME280;2545;50.892;5.740;2022-07-29T02:24:57;100617.13;;;18.30;80.07
5053;BME280;2545;50.892;5.740;2022-07-29T02:27:23;100608.63;;;18.28;79.60
5053;BME280;2545;50.892;5.740;2022-07-29T02:29:51;100616.66;;;18.49;78.57
5053;BME280;2545;50.892;5.740;2022-07-29T02:32:17;100617.59;;;18.56;77.65
5053;BME280;2545;50.892;5.740;2022-07-29T02:34:44;100603.09;;;18.45;78.51
5053;BME280;2545;50.892;5.740;2022-07-29T02:37:11;100605.72;;;18.45;78.94
5053;BME280;2545;50.892;5.740;2022-07-29T02:39:40;100599.00;;;18.51;78.06
5053;BME280;2545;50.892;5.740;2022-07-29T02:42:08;100602.28;;;18.45;78.76
5053;BME280;2545;50.892;5.740;2022-07-29T02:44:35;100593.66;;;18.44;78.86
5053;BME280;2545;50.892;5.740;2022-07-29T02:47:12;100602.56;;;18.58;78.48
5053;BME280;2545;50.892;5.740;2022-07-29T02:49:43;100596.22;;;18.52;79.06
5053;BME280;2545;50.892;5.740;2022-07-29T02:52:22;100601.00;;;18.49;80.21
5053;BME280;2545;50.892;5.740;2022-07-29T02:54:59;100599.31;;;18.56;79.93
5053;BME280;2545;50.892;5.740;2022-07-29T02:57:47;100602.38;;;18.37;83.33
5053;BME280;2545;50.892;5.740;2022-07-29T03:00:15;100607.84;;;18.50;86.88
5053;BME280;2545;50.892;5.740;2022-07-29T03:02:44;100595.09;;;18.47;93.45
5053;BME280;2545;50.892;5.740;2022-07-29T03:05:15;100589.66;;;18.34;93.95
5053;BME280;2545;50.892;5.740;2022-07-29T03:07:46;100597.50;;;18.34;97.24
5053;BME280;2545;50.892;5.740;2022-07-29T03:10:12;100600.53;;;18.23;97.67
5053;BME280;2545;50.892;5.740;2022-07-29T03:12:38;100601.22;;;18.17;100.00
5053;BME280;2545;50.892;5.740;2022-07-29T03:15:05;100583.69;;;18.03;100.00
5053;BME280;2545;50.892;5.740;2022-07-29T03:17:31;100594.69;;;17.90;100.00
5053;BME280;2545;50.892;5.740;2022-07-29T03:19:57;100591.63;;;17.86;100.00
5053;BME280;2545;50.892;5.740;2022-07-29T03:22:23;100600.06;;;17.96;100.00
5053;BME280;2545;50.892;5.740;2022-07-29T03:24:49;100611.78;;;18.01;100.00
5053;BME280;2545;50.892;5.740;2022-07-29T03:27:14;100605.63;;;17.93;100.00
5053;BME280;2545;50.892;5.740;2022-07-29T03:29:39;100597.97;;;17.92;100.00
5053;BME280;2545;50.892;5.740;2022-07-29T03:32:05;100604.75;;;18.01;100.00
5053;BME280;2545;50.892;5.740;2022-07-29T03:34:31;100594.19;;;17.94;100.00
5053;BME280;2545;50.892;5.740;2022-07-29T03:36:56;100602.03;;;17.94;100.00
5053;BME280;2545;50.892;5.740;2022-07-29T03:39:23;100594.94;;;17.80;100.00
5053;BME280;2545;50.892;5.740;2022-07-29T03:41:52;100585.19;;;17.74;100.00
5053;BME280;2545;50.892;5.740;2022-07-29T03:44:19;100579.66;;;17.69;100.00
5053;BME280;2545;50.892;5.740;2022-07-29T03:46:45;100594.50;;;17.69;100.00
5053;BME280;2545;50.892;5.740;2022-07-29T03:49:14;100588.44;;;17.76;100.00
5053;BME280;2545;50.892;5.740;2022-07-29T03:51:41;100586.44;;;17.78;100.00
5053;BME280;2545;50.892;5.740;2022-07-29T03:54:07;100573.47;;;17.70;100.00
5053;BME280;2545;50.892;5.740;2022-07-29T03:56:35;100584.66;;;17.79;100.00
5053;BME280;2545;50.892;5.740;2022-07-29T03:59:02;100583.84;;;17.78;100.00
5053;BME280;2545;50.892;5.740;2022-07-29T04:01:29;100576.59;;;17.66;100.00
5053;BME280;2545;50.892;5.740;2022-07-29T04:03:56;100589.50;;;17.59;100.00
5053;BME280;2545;50.892;5.740;2022-07-29T04:06:21;100602.56;;;17.59;100.00
5053;BME280;2545;50.892;5.740;2022-07-29T04:08:46;100601.75;;;17.59;100.00
5053;BME280;2545;50.892;5.740;2022-07-29T04:11:12;100596.66;;;17.65;100.00
5053;BME280;2545;50.892;5.740;2022-07-29T04:13:37;100600.44;;;17.63;100.00
5053;BME280;2545;50.892;5.740;2022-07-29T04:16:03;100601.22;;;17.63;100.00
5053;BME280;2545;50.892;5.740;2022-07-29T04:18:28;100597.50;;;17.58;100.00
5053;BME280;2545;50.892;5.740;2022-07-29T04:20:54;100607.25;;;17.64;100.00
5053;BME280;2545;50.892;5.740;2022-07-29T04:23:19;100608.56;;;17.52;100.00
5053;BME280;2545;50.892;5.740;2022-07-29T04:25:44;100612.00;;;17.60;100.00
5053;BME280;2545;50.892;5.740;2022-07-29T04:28:10;100605.97;;;17.52;100.00
5053;BME280;2545;50.892;5.740;2022-07-29T04:30:36;100600.31;;;17.48;100.00
5053;BME280;2545;50.892;5.740;2022-07-29T04:33:04;100601.09;;;17.57;100.00
5053;BME280;2545;50.892;5.740;2022-07-29T04:35:30;100606.84;;;17.75;100.00
5053;BME280;2545;50.892;5.740;2022-07-29T04:37:56;100608.63;;;17.82;100.00
5053;BME280;2545;50.892;5.740;2022-07-29T04:40:21;100618.53;;;17.87;100.00
5053;BME280;2545;50.892;5.740;2022-07-29T04:42:46;100589.72;;;17.80;100.00
5053;BME280;2545;50.892;5.740;2022-07-29T04:45:12;100593.94;;;17.81;100.00
5053;BME280;2545;50.892;5.740;2022-07-29T04:47:37;100587.63;;;17.76;100.00
5053;BME280;2545;50.892;5.740;2022-07-29T04:50:03;100590.75;;;17.71;100.00
5053;BME280;2545;50.892;5.740;2022-07-29T04:52:28;100593.53;;;17.70;100.00
5053;BME280;2545;50.892;5.740;2022-07-29T04:54:53;100604.59;;;17.72;100.00
5053;BME280;2545;50.892;5.740;2022-07-29T04:57:19;100608.63;;;17.82;100.00
5053;BME280;2545;50.892;5.740;2022-07-29T04:59:44;100607.47;;;17.85;100.00
5053;BME280;2545;50.892;5.740;2022-07-29T05:02:09;100616.53;;;17.97;100.00
5053;BME280;2545;50.892;5.740;2022-07-29T05:04:34;100614.91;;;17.96;100.00
5053;BME280;2545;50.892;5.740;2022-07-29T05:07:00;100626.31;;;17.95;100.00
5053;BME280;2545;50.892;5.740;2022-07-29T05:09:25;100627.88;;;17.81;100.00
5053;BME280;2545;50.892;5.740;2022-07-29T05:11:50;100627.75;;;17.75;100.00
5053;BME280;2545;50.892;5.740;2022-07-29T05:14:16;100621.16;;;17.56;100.00
5053;BME280;2545;50.892;5.740;2022-07-29T05:16:41;100614.09;;;17.65;100.00
5053;BME280;2545;50.892;5.740;2022-07-29T05:19:07;100620.72;;;17.75;100.00
5053;BME280;2545;50.892;5.740;2022-07-29T05:21:32;100618.94;;;17.76;100.00
5053;BME280;2545;50.892;5.740;2022-07-29T05:23:57;100617.44;;;17.81;100.00
5053;BME280;2545;50.892;5.740;2022-07-29T05:26:23;100612.53;;;17.48;100.00
5053;BME280;2545;50.892;5.740;2022-07-29T05:28:48;100624.78;;;17.39;100.00
5053;BME280;2545;50.892;5.740;2022-07-29T05:31:14;100629.63;;;17.58;100.00
5053;BME280;2545;50.892;5.740;2022-07-29T05:33:40;100634.47;;;17.69;100.00
5053;BME280;2545;50.892;5.740;2022-07-29T05:36:06;100624.16;;;17.76;100.00
5053;BME280;2545;50.892;5.740;2022-07-29T05:38:33;100632.06;;;17.90;100.00
5053;BME280;2545;50.892;5.740;2022-07-29T05:40:59;100631.53;;;17.95;100.00
5053;BME280;2545;50.892;5.740;2022-07-29T05:43:26;100628.78;;;17.96;100.00
5053;BME280;2545;50.892;5.740;2022-07-29T05:45:51;100626.13;;;17.74;100.00
5053;BME280;2545;50.892;5.740;2022-07-29T05:48:16;100631.78;;;17.85;100.00
5053;BME280;2545;50.892;5.740;2022-07-29T05:50:42;100640.66;;;17.99;100.00
5053;BME280;2545;50.892;5.740;2022-07-29T05:53:07;100637.13;;;17.92;100.00
5053;BME280;2545;50.892;5.740;2022-07-29T05:55:32;100638.25;;;17.89;100.00
5053;BME280;2545;50.892;5.740;2022-07-29T05:57:57;100656.53;;;17.89;100.00
5053;BME280;2545;50.892;5.740;2022-07-29T06:00:23;100645.88;;;17.99;100.00
5053;BME280;2545;50.892;5.740;2022-07-29T06:02:48;100653.91;;;17.97;100.00
5053;BME280;2545;50.892;5.740;2022-07-29T06:05:13;100660.41;;;18.02;100.00
5053;BME280;2545;50.892;5.740;2022-07-29T06:07:40;100662.84;;;18.03;100.00
5053;BME280;2545;50.892;5.740;2022-07-29T06:10:06;100668.16;;;18.18;100.00
5053;BME280;2545;50.892;5.740;2022-07-29T06:12:31;100659.66;;;18.16;100.00
5053;BME280;2545;50.892;5.740;2022-07-29T06:14:57;100668.56;;;17.98;100.00
5053;BME280;2545;50.892;5.740;2022-07-29T06:17:22;100662.44;;;17.83;100.00
5053;BME280;2545;50.892;5.740;2022-07-29T06:19:48;100676.66;;;17.89;100.00
5053;BME280;2545;50.892;5.740;2022-07-29T06:22:15;100676.31;;;17.92;100.00
5053;BME280;2545;50.892;5.740;2022-07-29T06:24:42;100666.31;;;17.95;100.00
5053;BME280;2545;50.892;5.740;2022-07-29T06:27:12;100662.25;;;18.24;100.00
5053;BME280;2545;50.892;5.740;2022-07-29T06:29:37;100664.44;;;18.12;100.00
5053;BME280;2545;50.892;5.740;2022-07-29T06:32:03;100662.16;;;18.09;100.00
5053;BME280;2545;50.892;5.740;2022-07-29T06:34:29;100685.28;;;18.20;100.00
5053;BME280;2545;50.892;5.740;2022-07-29T06:36:54;100674.88;;;18.12;100.00
5053;BME280;2545;50.892;5.740;2022-07-29T06:39:19;100679.78;;;18.38;100.00
5053;BME280;2545;50.892;5.740;2022-07-29T06:41:49;100678.41;;;18.42;100.00
5053;BME280;2545;50.892;5.740;2022-07-29T06:44:16;100675.38;;;18.61;100.00
5053;BME280;2545;50.892;5.740;2022-07-29T06:46:41;100682.84;;;18.87;100.00
5053;BME280;2545;50.892;5.740;2022-07-29T06:49:07;100685.09;;;18.90;99.82
5053;BME280;2545;50.892;5.740;2022-07-29T06:51:33;100686.75;;;18.91;99.83
5053;BME280;2545;50.892;5.740;2022-07-29T06:53:59;100684.56;;;18.94;100.00
5053;BME280;2545;50.892;5.740;2022-07-29T06:56:24;100687.50;;;19.14;99.22
5053;BME280;2545;50.892;5.740;2022-07-29T06:58:50;100681.19;;;19.23;99.33
5053;BME280;2545;50.892;5.740;2022-07-29T07:01:15;100695.38;;;19.73;95.67
5053;BME280;2545;50.892;5.740;2022-07-29T07:03:40;100691.69;;;20.03;86.31
5053;BME280;2545;50.892;5.740;2022-07-29T07:06:07;100700.19;;;20.19;84.84
5053;BME280;2545;50.892;5.740;2022-07-29T07:08:33;100690.78;;;20.46;80.06
5053;BME280;2545;50.892;5.740;2022-07-29T07:10:59;100699.00;;;20.64;77.37
5053;BME280;2545;50.892;5.740;2022-07-29T07:13:24;100686.13;;;20.69;77.58
5053;BME280;2545;50.892;5.740;2022-07-29T07:15:50;100694.72;;;21.06;75.55
5053;BME280;2545;50.892;5.740;2022-07-29T07:18:16;100685.78;;;21.28;71.71
5053;BME280;2545;50.892;5.740;2022-07-29T07:20:42;100688.28;;;21.36;70.61
5053;BME280;2545;50.892;5.740;2022-07-29T07:23:07;100692.25;;;21.60;69.47
5053;BME280;2545;50.892;5.740;2022-07-29T07:25:33;100702.00;;;21.72;71.99
5053;BME280;2545;50.892;5.740;2022-07-29T07:27:58;100704.66;;;21.79;68.54
5053;BME280;2545;50.892;5.740;2022-07-29T07:30:24;100702.97;;;22.06;63.88
5053;BME280;2545;50.892;5.740;2022-07-29T07:32:49;100717.56;;;22.15;65.80
5053;BME280;2545;50.892;5.740;2022-07-29T07:35:15;100702.00;;;22.20;65.73
5053;BME280;2545;50.892;5.740;2022-07-29T07:37:40;100722.59;;;22.03;67.12
5053;BME280;2545;50.892;5.740;2022-07-29T07:40:07;100722.94;;;21.94;70.38
5053;BME280;2545;50.892;5.740;2022-07-29T07:42:33;100716.66;;;21.88;68.42
5053;BME280;2545;50.892;5.740;2022-07-29T07:44:59;100718.19;;;21.76;69.09
5053;BME280;2545;50.892;5.740;2022-07-29T07:47:24;100716.81;;;21.86;68.32
5053;BME280;2545;50.892;5.740;2022-07-29T07:49:50;100707.03;;;22.08;66.24
5053;BME280;2545;50.892;5.740;2022-07-29T07:52:17;100715.56;;;22.23;69.25
5053;BME280;2545;50.892;5.740;2022-07-29T07:54:42;100711.50;;;22.14;68.27
5053;BME280;2545;50.892;5.740;2022-07-29T07:57:09;100722.84;;;22.28;64.80
5053;BME280;2545;50.892;5.740;2022-07-29T07:59:34;100711.03;;;22.04;66.57
5053;BME280;2545;50.892;5.740;2022-07-29T08:02:00;100716.34;;;22.17;64.82
5053;BME280;2545;50.892;5.740;2022-07-29T08:04:26;100709.84;;;22.07;71.47
5053;BME280;2545;50.892;5.740;2022-07-29T08:06:51;100716.38;;;22.24;65.98
5053;BME280;2545;50.892;5.740;2022-07-29T08:09:20;100728.31;;;22.33;63.64
5053;BME280;2545;50.892;5.740;2022-07-29T08:11:45;100708.66;;;22.16;63.54
5053;BME280;2545;50.892;5.740;2022-07-29T08:14:10;100715.59;;;22.36;63.46
5053;BME280;2545;50.892;5.740;2022-07-29T08:16:35;100717.22;;;22.37;62.61
5053;BME280;2545;50.892;5.740;2022-07-29T08:19:01;100720.47;;;22.53;61.83
5053;BME280;2545;50.892;5.740;2022-07-29T08:21:26;100724.72;;;22.47;62.12
5053;BME280;2545;50.892;5.740;2022-07-29T08:23:51;100729.16;;;22.47;62.45
5053;BME280;2545;50.892;5.740;2022-07-29T08:26:41;100722.28;;;22.46;61.61
5053;BME280;2545;50.892;5.740;2022-07-29T08:29:07;100723.69;;;22.35;61.51
5053;BME280;2545;50.892;5.740;2022-07-29T08:31:32;100737.72;;;22.68;62.30
5053;BME280;2545;50.892;5.740;2022-07-29T08:33:57;100735.91;;;22.88;61.38
5053;BME280;2545;50.892;5.740;2022-07-29T08:36:25;100745.81;;;23.06;61.10
5053;BME280;2545;50.892;5.740;2022-07-29T08:38:50;100737.91;;;23.32;58.48
5053;BME280;2545;50.892;5.740;2022-07-29T08:41:17;100739.34;;;23.35;60.40
5053;BME280;2545;50.892;5.740;2022-07-29T08:43:44;100729.03;;;23.46;58.97
5053;BME280;2545;50.892;5.740;2022-07-29T08:46:09;100733.22;;;23.61;57.56
5053;BME280;2545;50.892;5.740;2022-07-29T08:48:35;100727.97;;;23.54;57.23
5053;BME280;2545;50.892;5.740;2022-07-29T08:51:01;100740.63;;;23.90;57.40
5053;BME280;2545;50.892;5.740;2022-07-29T08:53:28;100734.31;;;23.91;57.45
5053;BME280;2545;50.892;5.740;2022-07-29T08:55:54;100742.44;;;23.96;57.56
5053;BME280;2545;50.892;5.740;2022-07-29T08:58:20;100746.50;;;23.92;58.22
5053;BME280;2545;50.892;5.740;2022-07-29T09:00:51;100749.53;;;23.95;57.74
5053;BME280;2545;50.892;5.740;2022-07-29T09:03:19;100748.25;;;23.53;60.42
5053;BME280;2545;50.892;5.740;2022-07-29T09:05:45;100749.22;;;23.59;58.96
5053;BME280;2545;50.892;5.740;2022-07-29T09:08:11;100750.47;;;23.50;59.19
5053;BME280;2545;50.892;5.740;2022-07-29T09:10:38;100755.78;;;23.43;59.81
5053;BME280;2545;50.892;5.740;2022-07-29T09:13:03;100746.19;;;23.69;58.62
5053;BME280;2545;50.892;5.740;2022-07-29T09:15:28;100750.44;;;23.63;59.14
5053;BME280;2545;50.892;5.740;2022-07-29T09:17:54;100755.06;;;23.87;59.14
5053;BME280;2545;50.892;5.740;2022-07-29T09:20:21;100750.13;;;23.97;59.55
5053;BME280;2545;50.892;5.740;2022-07-29T09:22:51;100742.50;;;23.76;57.85
5053;BME280;2545;50.892;5.740;2022-07-29T09:25:36;100752.88;;;23.65;61.34
5053;BME280;2545;50.892;5.740;2022-07-29T09:28:12;100752.97;;;23.96;58.73
5053;BME280;2545;50.892;5.740;2022-07-29T09:30:53;100753.91;;;24.21;59.20
5053;BME280;2545;50.892;5.740;2022-07-29T09:33:23;100740.88;;;24.26;57.70
5053;BME280;2545;50.892;5.740;2022-07-29T09:36:00;100743.56;;;24.57;58.06
5053;BME280;2545;50.892;5.740;2022-07-29T09:38:27;100750.41;;;24.34;58.58
5053;BME280;2545;50.892;5.740;2022-07-29T09:40:57;100758.19;;;24.09;57.80
5053;BME280;2545;50.892;5.740;2022-07-29T09:43:22;100766.94;;;23.96;59.66
5053;BME280;2545;50.892;5.740;2022-07-29T09:45:48;100764.03;;;24.24;60.37
5053;BME280;2545;50.892;5.740;2022-07-29T09:48:18;100769.88;;;24.33;59.52
5053;BME280;2545;50.892;5.740;2022-07-29T09:50:45;100772.94;;;23.66;60.85
5053;BME280;2545;50.892;5.740;2022-07-29T09:53:11;100761.09;;;23.88;61.21
5053;BME280;2545;50.892;5.740;2022-07-29T09:56:06;100776.47;;;24.11;60.23
5053;BME280;2545;50.892;5.740;2022-07-29T09:58:31;100759.19;;;24.21;58.70
5053;BME280;2545;50.892;5.740;2022-07-29T10:00:59;100772.59;;;24.57;58.17
5053;BME280;2545;50.892;5.740;2022-07-29T10:03:25;100772.22;;;24.47;57.19
5053;BME280;2545;50.892;5.740;2022-07-29T10:06:07;100768.84;;;24.72;56.42
5053;BME280;2545;50.892;5.740;2022-07-29T10:08:33;100767.75;;;24.79;57.09
5053;BME280;2545;50.892;5.740;2022-07-29T10:11:16;100753.50;;;25.36;55.10
5053;BME280;2545;50.892;5.740;2022-07-29T10:13:43;100759.88;;;25.47;54.33
5053;BME280;2545;50.892;5.740;2022-07-29T10:16:09;100753.41;;;25.67;51.77
5053;BME280;2545;50.892;5.740;2022-07-29T10:18:38;100762.66;;;25.77;51.64
5053;BME280;2545;50.892;5.740;2022-07-29T10:21:03;100754.34;;;26.09;50.38
5053;BME280;2545;50.892;5.740;2022-07-29T10:23:29;100747.69;;;26.48;50.41
5053;BME280;2545;50.892;5.740;2022-07-29T10:25:56;100758.97;;;26.44;48.03
5053;BME280;2545;50.892;5.740;2022-07-29T10:28:22;100745.75;;;26.44;48.43
5053;BME280;2545;50.892;5.740;2022-07-29T10:30:50;100748.06;;;27.16;46.32
5053;BME280;2545;50.892;5.740;2022-07-29T10:36:32;100769.13;;;28.77;43.15
5053;BME280;2545;50.892;5.740;2022-07-29T10:42:13;100770.59;;;30.22;39.85
5053;BME280;2545;50.892;5.740;2022-07-29T10:44:39;100768.94;;;31.01;37.79
5053;BME280;2545;50.892;5.740;2022-07-29T10:47:05;100773.28;;;30.80;38.16
5053;BME280;2545;50.892;5.740;2022-07-29T10:49:30;100773.81;;;31.51;37.05
5053;BME280;2545;50.892;5.740;2022-07-29T10:52:00;100781.59;;;32.29;36.07
5053;BME280;2545;50.892;5.740;2022-07-29T10:59:39;100784.81;;;33.53;34.16
5053;BME280;2545;50.892;5.740;2022-07-29T11:04:59;100779.66;;;34.69;32.36
5053;BME280;2545;50.892;5.740;2022-07-29T11:07:25;100787.53;;;35.18;31.40
5053;BME280;2545;50.892;5.740;2022-07-29T11:15:11;100779.59;;;35.61;30.35
5053;BME280;2545;50.892;5.740;2022-07-29T11:18:03;100769.78;;;34.65;31.13
5053;BME280;2545;50.892;5.740;2022-07-29T11:23:24;100770.94;;;34.48;31.03
5053;BME280;2545;50.892;5.740;2022-07-29T11:31:17;100763.09;;;36.79;29.15
5053;BME280;2545;50.892;5.740;2022-07-29T11:33:44;100776.47;;;37.30;28.60
5053;BME280;2545;50.892;5.740;2022-07-29T11:36:12;100775.34;;;37.72;27.71
5053;BME280;2545;50.892;5.740;2022-07-29T11:38:38;100780.16;;;35.81;30.16
5053;BME280;2545;50.892;5.740;2022-07-29T11:41:23;100760.53;;;33.14;33.63
5053;BME280;2545;50.892;5.740;2022-07-29T11:43:58;100756.97;;;34.08;32.80
5053;BME280;2545;50.892;5.740;2022-07-29T11:46:43;100771.28;;;35.99;30.56
5053;BME280;2545;50.892;5.740;2022-07-29T11:49:09;100761.47;;;36.14;29.37
5053;BME280;2545;50.892;5.740;2022-07-29T11:51:39;100764.06;;;35.58;29.87
5053;BME280;2545;50.892;5.740;2022-07-29T11:54:05;100774.13;;;34.89;30.93
5053;BME280;2545;50.892;5.740;2022-07-29T11:56:34;100769.94;;;34.78;30.83
5053;BME280;2545;50.892;5.740;2022-07-29T11:59:05;100774.59;;;36.34;28.95
5053;BME280;2545;50.892;5.740;2022-07-29T12:01:31;100776.88;;;36.78;27.74
5053;BME280;2545;50.892;5.740;2022-07-29T12:04:07;100774.47;;;35.35;30.33
5053;BME280;2545;50.892;5.740;2022-07-29T12:06:36;100771.19;;;34.86;30.58
5053;BME280;2545;50.892;5.740;2022-07-29T12:09:07;100774.06;;;33.63;32.17
5053;BME280;2545;50.892;5.740;2022-07-29T12:11:33;100763.91;;;33.60;33.37
5053;BME280;2545;50.892;5.740;2022-07-29T12:13:58;100773.69;;;35.06;30.36
5053;BME280;2545;50.892;5.740;2022-07-29T12:16:34;100777.53;;;37.02;28.27
5053;BME280;2545;50.892;5.740;2022-07-29T12:19:01;100770.09;;;37.53;27.02
5053;BME280;2545;50.892;5.740;2022-07-29T12:21:28;100785.06;;;38.45;26.58
5053;BME280;2545;50.892;5.740;2022-07-29T12:23:55;100771.91;;;38.07;26.39
5053;BME280;2545;50.892;5.740;2022-07-29T12:26:20;100781.31;;;36.31;28.79
5053;BME280;2545;50.892;5.740;2022-07-29T12:28:46;100757.81;;;37.06;28.17
5053;BME280;2545;50.892;5.740;2022-07-29T12:31:15;100764.69;;;37.40;26.98
5053;BME280;2545;50.892;5.740;2022-07-29T12:33:41;100773.47;;;39.19;25.11
5053;BME280;2545;50.892;5.740;2022-07-29T12:36:07;100774.06;;;38.55;24.65
5053;BME280;2545;50.892;5.740;2022-07-29T12:38:36;100775.06;;;38.90;25.07
5053;BME280;2545;50.892;5.740;2022-07-29T12:41:02;100768.13;;;40.02;23.98
5053;BME280;2545;50.892;5.740;2022-07-29T12:43:28;100766.38;;;40.31;23.89
5053;BME280;2545;50.892;5.740;2022-07-29T12:45:55;100762.72;;;40.53;23.50
5053;BME280;2545;50.892;5.740;2022-07-29T12:48:35;100769.06;;;40.31;23.34
5053;BME280;2545;50.892;5.740;2022-07-29T12:51:02;100755.34;;;40.71;23.40
5053;BME280;2545;50.892;5.740;2022-07-29T12:53:28;100770.09;;;41.37;21.58
5053;BME280;2545;50.892;5.740;2022-07-29T12:55:54;100761.91;;;40.44;21.35
5053;BME280;2545;50.892;5.740;2022-07-29T12:58:36;100777.84;;;40.11;22.13
5053;BME280;2545;50.892;5.740;2022-07-29T13:01:10;100770.84;;;39.36;22.94
5053;BME280;2545;50.892;5.740;2022-07-29T13:06:27;100771.94;;;39.75;23.38
5053;BME280;2545;50.892;5.740;2022-07-29T13:09:06;100751.09;;;40.35;22.86
5053;BME280;2545;50.892;5.740;2022-07-29T13:13:57;100780.38;;;42.02;20.70
5053;BME280;2545;50.892;5.740;2022-07-29T13:16:22;100772.50;;;41.38;20.74
5053;BME280;2545;50.892;5.740;2022-07-29T13:18:48;100769.84;;;40.75;21.65
5053;BME280;2545;50.892;5.740;2022-07-29T13:21:15;100763.38;;;40.50;22.24
5053;BME280;2545;50.892;5.740;2022-07-29T13:23:40;100780.47;;;41.64;21.21
5053;BME280;2545;50.892;5.740;2022-07-29T13:26:10;100771.13;;;41.82;21.41
5053;BME280;2545;50.892;5.740;2022-07-29T13:28:36;100782.97;;;41.69;21.44
5053;BME280;2545;50.892;5.740;2022-07-29T13:31:02;100771.03;;;39.40;23.81
5053;BME280;2545;50.892;5.740;2022-07-29T13:33:27;100761.31;;;39.00;23.88
5053;BME280;2545;50.892;5.740;2022-07-29T13:35:53;100756.81;;;38.20;25.41
5053;BME280;2545;50.892;5.740;2022-07-29T13:38:18;100752.94;;;36.90;26.30
5053;BME280;2545;50.892;5.740;2022-07-29T13:40:43;100755.25;;;36.96;26.11
5053;BME280;2545;50.892;5.740;2022-07-29T13:43:10;100756.63;;;37.12;26.55
5053;BME280;2545;50.892;5.740;2022-07-29T13:45:35;100750.16;;;36.30;26.21
5053;BME280;2545;50.892;5.740;2022-07-29T13:48:00;100748.00;;;36.14;27.00
5053;BME280;2545;50.892;5.740;2022-07-29T13:50:26;100745.16;;;36.05;26.99
5053;BME280;2545;50.892;5.740;2022-07-29T13:52:51;100746.75;;;36.76;26.63